AirNav   Airventure
 
 821 users online  

MN28 Lux Strip Airport
Cosmos, Minnesota, USA

GOING TO COSMOS?


FAA INFORMATION EFFECTIVE 20 JULY 2017

Location

FAA Identifier: MN28
Lat/Long: 44-58-58.8630N / 094-44-52.9870W
44-58.981050N / 094-44.883117W
44.9830175 / -94.7480519
(estimated)
Elevation: 1120 ft. / 341 m (estimated)
Variation: 04E (1985)
From city: 3 miles NW of COSMOS, MN
Time zone: UTC -5 (UTC -6 during Standard Time)
Zip code: 56228

Airport Operations

Airport use: Private use. Permission required prior to landing
Activation date: 02/1977
Control tower: no
ARTCC: MINNEAPOLIS CENTER
FSS: PRINCETON FLIGHT SERVICE STATION
Attendance: UNATNDD
Wind indicator: yes
Segmented circle: no

Airport Communications

WX AWOS-3 at LJF (12 nm NE): 109.0 (320-693-6456)
WX AWOS-3 at HCD (17 nm SE): 118.525 (320-587-3343)
WX AWOS-3 at OVL (17 nm SW): 119.275 (320-523-5924)
WX AWOS-3 at BDH (18 nm NW): 113.7 (320-235-8287)

Nearby radio navigation aids

VOR radial/distance  VOR name  Freq  Var
DWNr236/14.0DARWIN VORTAC109.0007E
BDHr113/18.0WILLMAR VOR/DME113.7004E
RWFr021/34.9REDWOOD FALLS VOR/DME113.3007E

 
NDB name  Hdg/Dist  Freq  Var  ID
GLENCOE292/31.140703EGYL --. -.-- .-..

Airport Services

Runway Information

Runway 18/36

Dimensions: 2550 x 90 ft. / 777 x 27 m
Surface: turf
RUNWAY 18  RUNWAY 36
Traffic pattern: leftleft

Airport Ownership and Management from official FAA records

Ownership: Privately-owned
Owner: DAVID LUX
50846 160TH ST
COSMOS, MN 56228
Phone 320-877-7498
Manager: DAVID LUX
50846 160TH ST
COSMOS, MN 56228
Phone 320-877-7498

Airport Operational Statistics

Aircraft based on the field: 1
Single engine airplanes: 1
    

Additional Remarks

DO NOT CHART PER MINNESOTA DEPARTMENT OF TRANSPORTATION

Instrument Procedures

There are no published instrument procedures at MN28.

Some nearby airports with instrument procedures:

KLJF - Litchfield Municipal Airport (12 nm NE)
KHCD - Hutchinson Municipal Airport-Butler Field (17 nm SE)
KOVL - Olivia Regional Airport (17 nm SW)
KBDH - Willmar Municipal Airport-John L Rice Fiel (18 nm NW)
KPEX - Paynesville Municipal Airport (23 nm N)
 
Loc | Ops | Rwys | IFR | FBO | Links
Com | Nav | Svcs | Stats | Notes


 
Area around MN28 (Lux Strip Airport)
 
Road maps at: MapQuest Bing Google
 
Aerial photo
No photo
 
Sectional chart

 
Airport distance calculator
Flying to Lux Strip Airport? Find the distance to fly.

From to MN28

Sunrise and sunset
Times for 22-Jul-2017
 Local
(UTC-5)
 Zulu
(UTC)
Morning civil twilight05:1910:19
Sunrise05:5410:54
Sunset20:5601:56
Evening civil twilight21:3102:31

Current date and time
Zulu (UTC)  23-Jul-2017 02:07:03
Local (UTC-5)  22-Jul-2017 21:07:03
 
METAR
KLJF 
13nm NE 
230153Z AUTO 33003KT 10SM CLR 25/18 A2986 RMK AO2
KOVL 
17nm SW 
230153Z AUTO 00000KT 10SM CLR 25/18 A2986 RMK AO2
KHCD 
18nm SE 
230154Z AUTO 30003KT 10SM CLR 24/18 A2987 RMK AO2 T02370182
KBDH 
18nm NW 
230155Z AUTO 00000KT 10SM CLR 24/19 A2987 RMK AO2
KPEX 
23nm N 
230153Z AUTO 00000KT 10SM CLR 23/18 A2987 RMK AO2 T02280176
TAF
KRWF 
30nm SW 
221731Z 2218/2318 31010G16KT P6SM SCT250 FM230100 32005KT P6SM SKC FM231600 32010G16KT P6SM SKC
NOTAMs
Click for the latest NOTAMs
NOTAMs are issued by the DoD/FAA and will open in a separate window not controlled by AirNav.

 

 
 

Would you like to see your business listed on this page?

 If your business provides an interesting product or service to pilots, flight crews, aircraft, or users of the Lux Strip Airport, you should consider listing it here.  To start the listing process, click on the button below
 
Add a business
 

Other Pages about Lux Strip Airport

Update a link
 
Copyright © AirNav, LLC. All rights reserved. Privacy Policy  Contact